createdAt,value
2022-12-24T00:01:21.891Z,78.25
2022-12-24T00:03:49.147Z,69.50
2022-12-24T00:06:23.507Z,67.75
2022-12-24T00:08:51.579Z,67.25
2022-12-24T00:11:20.616Z,65.25
2022-12-24T00:13:48.558Z,54.75
2022-12-24T00:16:16.528Z,51.00
2022-12-24T00:18:46.575Z,46.75
2022-12-24T00:21:16.124Z,45.00
2022-12-24T00:23:43.467Z,41.25
2022-12-24T00:26:11.772Z,42.75
2022-12-24T00:28:38.945Z,38.00
2022-12-24T00:31:12.912Z,30.67
2022-12-24T00:33:40.275Z,29.33
2022-12-24T00:36:08.243Z,31.33
2022-12-24T00:38:35.693Z,29.50
2022-12-24T00:41:04.840Z,29.00
2022-12-24T00:43:32.835Z,36.50
2022-12-24T00:46:00.455Z,31.50
2022-12-24T00:48:27.672Z,28.00
2022-12-24T00:50:55.259Z,31.75
2022-12-24T00:53:22.447Z,8.25
2022-12-24T00:55:49.977Z,36.33
2022-12-24T00:58:17.140Z,30.75
2022-12-24T01:00:44.601Z,24.00
2022-12-24T01:03:11.819Z,14.00
2022-12-24T01:05:39.334Z,28.25
2022-12-24T01:08:06.550Z,26.33
2022-12-24T01:10:34.008Z,26.25
2022-12-24T01:13:03.054Z,27.25
2022-12-24T01:15:30.772Z,28.00
2022-12-24T01:17:58.685Z,23.25
2022-12-24T01:20:31.756Z,31.00
2022-12-24T01:22:59.161Z,30.00
2022-12-24T01:25:26.627Z,28.00
2022-12-24T01:27:53.743Z,24.50
2022-12-24T01:30:21.369Z,22.75
2022-12-24T01:32:48.693Z,30.00
2022-12-24T01:35:16.276Z,29.75
2022-12-24T01:37:43.827Z,24.67
2022-12-24T01:40:34.405Z,32.00
2022-12-24T01:43:20.182Z,19.00
2022-12-24T01:45:53.295Z,25.67
2022-12-24T01:48:37.756Z,20.00
2022-12-24T01:51:17.623Z,28.00
2022-12-24T01:53:52.492Z,24.00
2022-12-24T01:56:22.218Z,22.00
2022-12-24T01:58:57.974Z,20.67
2022-12-24T02:01:25.677Z,23.33
2022-12-24T02:03:53.313Z,26.00
2022-12-24T02:06:22.658Z,22.67
2022-12-24T02:08:49.894Z,16.67
2022-12-24T02:11:20.803Z,19.00
2022-12-24T02:13:55.916Z,16.33
2022-12-24T02:16:31.395Z,19.67
2022-12-24T02:19:36.579Z,19.33
2022-12-24T02:22:42.034Z,22.33
2022-12-24T02:25:23.889Z,19.00
2022-12-24T02:28:09.171Z,20.67
2022-12-24T02:30:42.153Z,11.00
2022-12-24T02:33:12.150Z,17.67
2022-12-24T02:36:05.215Z,18.33
2022-12-24T02:38:46.146Z,25.00
2022-12-24T02:41:22.211Z,18.67
2022-12-24T02:43:55.531Z,15.67
2022-12-24T02:46:28.265Z,17.00
2022-12-24T02:48:56.970Z,20.00
2022-12-24T02:51:25.033Z,20.33
2022-12-24T02:53:52.927Z,23.00
2022-12-24T02:56:36.962Z,22.33
2022-12-24T02:59:29.166Z,29.67
2022-12-24T03:02:15.012Z,19.67
2022-12-24T03:05:20.488Z,25.33
2022-12-24T03:08:02.937Z,43.25
2022-12-24T03:10:36.604Z,36.00
2022-12-24T03:13:10.800Z,41.50
2022-12-24T03:15:40.050Z,42.50
2022-12-24T03:18:10.624Z,56.25
2022-12-24T03:20:48.916Z,48.00
2022-12-24T03:23:16.394Z,42.25
2022-12-24T03:25:45.545Z,48.50
2022-12-24T03:28:17.830Z,59.00
2022-12-24T03:30:48.684Z,62.75
2022-12-24T03:33:17.205Z,69.25
2022-12-24T03:35:45.410Z,66.50
2022-12-24T03:38:12.577Z,62.50
2022-12-24T03:40:40.089Z,66.50
2022-12-24T03:43:07.205Z,62.00
2022-12-24T03:45:35.034Z,59.50
2022-12-24T03:48:02.343Z,60.25
2022-12-24T03:50:29.959Z,56.67
2022-12-24T03:52:57.218Z,52.00
2022-12-24T03:55:24.886Z,54.00
2022-12-24T03:57:52.077Z,49.50
2022-12-24T04:00:20.231Z,46.25
2022-12-24T04:02:47.550Z,36.33
2022-12-24T04:05:17.756Z,30.00
2022-12-24T04:07:45.749Z,41.50
2022-12-24T04:10:14.482Z,42.75
2022-12-24T04:12:41.694Z,32.00
2022-12-24T04:15:10.295Z,25.25
2022-12-24T04:17:37.659Z,26.00
2022-12-24T04:20:05.867Z,26.50
2022-12-24T04:22:32.992Z,24.67
2022-12-24T04:25:00.665Z,23.50
2022-12-24T04:27:30.542Z,22.00
2022-12-24T04:29:59.043Z,10.33
2022-12-24T04:32:27.407Z,20.33
2022-12-24T04:34:55.053Z,17.00
2022-12-24T04:37:22.221Z,28.67
2022-12-24T04:39:49.869Z,18.00
2022-12-24T04:42:16.958Z,18.00
2022-12-24T04:44:44.637Z,25.00
2022-12-24T04:47:11.801Z,17.33
2022-12-24T04:49:39.333Z,16.33
2022-12-24T04:52:06.580Z,14.33
2022-12-24T04:54:34.201Z,16.67
2022-12-24T04:57:01.371Z,17.67
2022-12-24T05:04:07.202Z,17.00
2022-12-24T05:06:35.198Z,16.33
2022-12-24T05:09:02.422Z,23.33
2022-12-24T05:11:30.995Z,16.67
2022-12-24T05:13:58.214Z,18.33
2022-12-24T05:16:25.875Z,19.00
2022-12-24T05:18:54.012Z,21.50
2022-12-24T05:21:23.950Z,15.33
2022-12-24T05:24:10.496Z,10.33
2022-12-24T05:26:51.944Z,19.50
2022-12-24T05:29:19.114Z,14.00
2022-12-24T05:31:47.398Z,14.00
2022-12-24T05:34:15.886Z,14.33
2022-12-24T05:36:44.652Z,10.00
2022-12-24T05:39:18.958Z,14.33
2022-12-24T05:41:48.044Z,14.00
2022-12-24T05:44:16.503Z,15.67
2022-12-24T05:46:45.025Z,13.67
2022-12-24T05:49:12.422Z,15.00
2022-12-24T05:51:40.648Z,20.50
2022-12-24T05:54:08.325Z,19.25
2022-12-24T05:56:35.927Z,21.67
2022-12-24T05:59:03.111Z,16.67
2022-12-24T06:01:30.722Z,16.00
2022-12-24T06:03:58.356Z,11.00
2022-12-24T06:06:27.887Z,17.33
2022-12-24T06:08:56.427Z,15.33
2022-12-24T06:11:26.604Z,14.33
2022-12-24T06:13:54.863Z,16.33
2022-12-24T06:16:24.428Z,15.00
2022-12-24T06:18:52.173Z,17.00
2022-12-24T06:21:20.016Z,21.00
2022-12-24T06:23:47.463Z,12.00
2022-12-24T06:26:19.477Z,18.33
2022-12-24T06:28:49.744Z,19.67
2022-12-24T06:31:20.604Z,21.33
2022-12-24T06:33:47.766Z,14.33
2022-12-24T06:36:18.474Z,20.67
2022-12-24T06:38:47.862Z,18.67
2022-12-24T06:41:17.081Z,15.67
2022-12-24T06:43:46.452Z,12.00
2022-12-24T06:46:14.229Z,12.00
2022-12-24T06:48:42.618Z,16.00
2022-12-24T06:51:10.071Z,25.00
2022-12-24T06:53:37.218Z,19.00
2022-12-24T06:56:10.368Z,13.33
2022-12-24T06:58:38.003Z,24.67
2022-12-24T07:01:08.104Z,24.00
2022-12-24T07:03:35.688Z,25.67
2022-12-24T07:06:03.434Z,25.67
2022-12-24T07:08:33.822Z,22.00
2022-12-24T07:11:01.378Z,24.00
2022-12-24T07:13:29.429Z,26.67
2022-12-24T07:16:02.228Z,21.00
2022-12-24T11:16:07.844Z,10.67
2022-12-24T11:18:39.126Z,6.67
2022-12-24T11:21:06.787Z,9.00
2022-12-24T11:23:35.012Z,5.67
2022-12-24T11:26:05.880Z,8.33
2022-12-24T11:28:34.295Z,5.33
2022-12-24T11:31:22.921Z,8.33
2022-12-24T11:33:55.627Z,6.67
2022-12-24T11:36:25.106Z,10.33
2022-12-24T11:38:58.085Z,10.00
2022-12-24T11:41:26.588Z,13.67
2022-12-24T11:44:04.905Z,8.00
2022-12-24T11:46:41.821Z,9.67
2022-12-24T11:49:12.590Z,11.67
2022-12-24T11:51:46.462Z,10.33
2022-12-24T11:54:24.407Z,12.00
2022-12-24T11:56:56.288Z,11.33
2022-12-24T11:59:31.929Z,12.00
2022-12-24T12:02:13.056Z,16.33
2022-12-24T12:04:43.519Z,13.67
2022-12-24T12:07:40.938Z,15.00
2022-12-24T12:10:28.991Z,19.00
2022-12-24T12:13:33.812Z,22.00
2022-12-24T12:16:18.723Z,25.67
2022-12-24T12:19:15.003Z,31.67
2022-12-24T12:21:48.183Z,15.00
2022-12-24T12:24:28.274Z,39.33
2022-12-24T12:27:32.757Z,22.33
2022-12-24T12:30:14.737Z,19.00
2022-12-24T12:32:54.389Z,16.67
2022-12-24T12:35:30.550Z,10.00
2022-12-24T12:38:02.524Z,14.33
2022-12-24T12:40:57.597Z,17.33
2022-12-24T12:43:43.373Z,16.00
2022-12-24T12:46:38.102Z,19.00
2022-12-24T12:49:24.376Z,16.67
2022-12-24T12:52:04.021Z,20.00
2022-12-24T12:54:54.342Z,15.33
2022-12-24T12:57:27.083Z,16.00
2022-12-24T13:00:04.584Z,21.67
2022-12-24T13:03:02.356Z,25.67
2022-12-24T13:05:55.002Z,15.00
2022-12-24T13:08:57.480Z,21.00
2022-12-24T13:12:03.693Z,19.67
2022-12-24T13:14:52.604Z,28.33
2022-12-24T13:17:49.327Z,54.75
2022-12-24T13:20:29.962Z,70.00
2022-12-24T13:23:09.348Z,81.75
2022-12-24T13:25:37.900Z,48.00
2022-12-24T13:28:33.173Z,53.50
2022-12-24T13:31:20.147Z,69.25
2022-12-24T13:33:55.032Z,83.50
2022-12-24T13:36:22.418Z,46.00
2022-12-24T13:38:58.294Z,38.00
2022-12-24T13:41:39.431Z,33.00
2022-12-24T13:44:09.410Z,30.67
2022-12-24T13:46:58.212Z,47.00
2022-12-24T13:49:28.858Z,57.00
2022-12-24T13:52:29.917Z,53.00
2022-12-24T13:54:58.675Z,41.00
2022-12-24T13:57:48.208Z,25.67
2022-12-24T14:00:21.736Z,31.33
2022-12-24T14:03:07.220Z,30.00
2022-12-24T14:05:44.841Z,27.33
2022-12-24T14:08:16.954Z,32.67
2022-12-24T14:11:00.043Z,23.33
2022-12-24T14:13:39.623Z,25.67
2022-12-24T14:16:28.766Z,35.67
2022-12-24T14:18:58.988Z,37.67
2022-12-24T14:21:42.469Z,59.75
2022-12-24T14:24:25.579Z,54.67
2022-12-24T14:27:02.112Z,56.50
2022-12-24T14:29:32.026Z,65.00
2022-12-24T14:32:04.537Z,57.75
2022-12-24T14:34:32.410Z,63.50
2022-12-24T14:37:04.380Z,32.67
2022-12-24T14:39:57.049Z,53.00
2022-12-24T14:42:45.385Z,59.00
2022-12-24T14:45:59.426Z,46.00
2022-12-24T14:48:52.397Z,35.67
2022-12-24T14:51:57.056Z,60.75
2022-12-24T14:54:38.136Z,66.00
2022-12-24T14:57:13.279Z,54.00
2022-12-24T14:59:53.712Z,61.25
2022-12-24T15:02:52.359Z,39.25
2022-12-24T15:05:28.851Z,45.33
2022-12-24T15:08:01.950Z,39.25
2022-12-24T15:10:42.022Z,52.25
2022-12-24T15:13:43.699Z,53.50
2022-12-24T15:16:25.306Z,49.33
2022-12-24T15:18:58.119Z,49.75
2022-12-24T15:21:31.268Z,46.75
2022-12-24T15:23:58.721Z,64.50
2022-12-24T15:26:36.803Z,81.00
2022-12-24T15:29:23.413Z,72.00
2022-12-24T15:31:59.975Z,73.00
2022-12-24T15:34:37.525Z,60.50
2022-12-24T15:37:12.648Z,55.00
2022-12-24T15:39:41.487Z,60.25
2022-12-24T15:42:14.611Z,53.25
2022-12-24T15:45:05.815Z,53.00
2022-12-24T15:47:40.815Z,36.67
2022-12-24T15:50:33.008Z,43.25
2022-12-24T15:53:29.597Z,59.25
2022-12-24T15:56:07.207Z,50.00
2022-12-24T15:58:38.236Z,50.00
2022-12-24T16:01:17.836Z,39.67
2022-12-24T16:03:51.922Z,45.00
2022-12-24T16:06:19.699Z,30.67
2022-12-24T16:08:47.937Z,36.00
2022-12-24T16:11:19.432Z,37.00
2022-12-24T16:14:05.425Z,44.33
2022-12-24T16:16:44.388Z,49.50
2022-12-24T16:19:28.050Z,74.00
2022-12-24T16:21:58.010Z,69.50
2022-12-24T16:24:31.030Z,59.00
2022-12-24T16:26:58.524Z,57.00
2022-12-24T16:29:27.866Z,53.50
2022-12-24T16:31:59.660Z,59.50
2022-12-24T16:34:29.890Z,53.25
2022-12-24T16:36:58.098Z,47.50
2022-12-24T16:39:35.487Z,49.25
2022-12-24T16:42:22.967Z,36.75
2022-12-24T16:44:53.263Z,46.75
2022-12-24T16:47:27.466Z,53.50
2022-12-24T16:49:55.065Z,54.50
2022-12-24T16:52:28.644Z,47.50
2022-12-24T16:54:57.728Z,41.50
2022-12-24T16:57:25.477Z,45.25
2022-12-24T16:59:53.723Z,47.50
2022-12-24T17:10:41.322Z,46.25
2022-12-24T17:13:08.802Z,35.75
2022-12-24T17:15:35.928Z,40.50
2022-12-24T17:18:03.590Z,38.50
2022-12-24T17:20:30.751Z,44.00
2022-12-24T17:22:59.099Z,50.25
2022-12-24T17:25:26.242Z,51.50
2022-12-24T17:27:53.745Z,47.00
2022-12-24T17:30:20.948Z,40.75
2022-12-24T17:32:48.416Z,43.50
2022-12-24T17:35:15.612Z,32.33
2022-12-24T17:37:43.113Z,46.00
2022-12-24T17:40:10.898Z,32.25
2022-12-24T17:42:38.406Z,38.00
2022-12-24T17:45:06.104Z,45.75
2022-12-24T17:47:33.775Z,42.25
2022-12-24T17:50:00.955Z,55.25
2022-12-24T17:52:28.419Z,33.75
2022-12-24T17:54:55.669Z,54.75
2022-12-24T17:57:23.237Z,43.25
2022-12-24T17:59:50.660Z,37.25
2022-12-24T18:02:18.272Z,70.25
2022-12-24T18:04:45.714Z,59.50
2022-12-24T18:07:13.562Z,45.75
2022-12-24T18:09:43.809Z,54.50
2022-12-24T18:12:12.558Z,72.75
2022-12-24T18:14:39.710Z,55.00
2022-12-24T18:17:07.163Z,42.25
2022-12-24T18:19:34.365Z,27.25
2022-12-24T18:22:01.848Z,26.75
2022-12-24T18:24:29.019Z,22.50
2022-12-24T18:26:56.926Z,28.00
2022-12-24T18:29:24.185Z,27.75
2022-12-24T18:31:51.699Z,36.75
2022-12-24T18:34:18.843Z,37.50
2022-12-24T18:36:52.924Z,32.75
2022-12-24T18:39:22.177Z,30.50
2022-12-24T18:41:49.820Z,42.25
2022-12-24T18:44:22.530Z,24.25
2022-12-24T18:46:52.385Z,36.25
2022-12-24T18:49:19.513Z,15.33
2022-12-24T18:51:47.076Z,34.25
2022-12-24T18:54:14.257Z,43.75
2022-12-24T18:56:41.927Z,46.50
2022-12-24T18:59:09.757Z,35.50
2022-12-24T19:01:37.537Z,40.50
2022-12-24T19:04:04.946Z,37.75
2022-12-24T19:06:32.495Z,36.25
2022-12-24T19:09:01.095Z,34.25
2022-12-24T19:11:31.721Z,31.75
2022-12-24T19:13:59.961Z,31.75
2022-12-24T19:16:29.136Z,27.25
2022-12-24T19:18:56.781Z,32.25
2022-12-24T19:21:24.706Z,28.50
2022-12-24T19:23:52.093Z,33.00
2022-12-24T19:26:20.960Z,28.25
2022-12-24T19:28:49.051Z,35.50
2022-12-24T19:31:22.494Z,32.25
2022-12-24T19:33:57.179Z,41.00
2022-12-24T19:36:30.135Z,33.25
2022-12-24T19:38:59.185Z,31.75
2022-12-24T19:41:28.893Z,31.25
2022-12-24T19:43:59.056Z,40.75
2022-12-24T19:46:32.169Z,42.25
2022-12-24T19:49:01.605Z,44.25
2022-12-24T19:51:29.757Z,58.50
2022-12-24T19:53:58.514Z,66.00
2022-12-24T19:56:28.335Z,60.50
2022-12-24T19:58:57.579Z,60.25
2022-12-24T20:01:28.339Z,58.00
2022-12-24T20:03:56.467Z,65.50
2022-12-24T20:06:26.268Z,53.50
2022-12-24T20:08:58.299Z,50.00
2022-12-24T20:11:26.276Z,130.75
2022-12-24T20:13:57.129Z,122.75
2022-12-24T20:16:24.665Z,160.75
2022-12-24T20:18:56.330Z,183.00
2022-12-24T20:21:24.796Z,157.25
2022-12-24T20:23:52.370Z,115.50
2022-12-24T20:26:25.507Z,88.25
2022-12-24T20:28:53.550Z,73.25
2022-12-24T20:31:27.417Z,1.00
2022-12-24T20:33:56.938Z,31.50
2022-12-24T20:36:26.087Z,34.00
2022-12-24T20:38:53.765Z,36.50
2022-12-24T20:41:24.032Z,25.00
2022-12-24T20:43:51.783Z,38.00
2022-12-24T20:46:21.624Z,39.25
2022-12-24T20:48:49.465Z,34.00
2022-12-24T20:51:24.805Z,34.00
2022-12-24T20:53:57.800Z,46.25
2022-12-24T20:56:26.242Z,45.25
2022-12-24T20:58:53.763Z,39.00
2022-12-24T21:01:24.871Z,54.50
2022-12-24T21:03:54.235Z,39.50
2022-12-24T21:06:23.863Z,43.50
2022-12-24T21:08:56.432Z,35.25
2022-12-24T21:11:44.263Z,23.75
2022-12-24T21:14:15.844Z,40.25
2022-12-24T21:16:48.446Z,37.75
2022-12-24T21:19:23.307Z,30.25
2022-12-24T21:21:51.434Z,31.33
2022-12-24T21:24:21.785Z,50.75
2022-12-24T21:27:07.770Z,39.25
2022-12-24T21:29:38.525Z,43.50
2022-12-24T21:32:11.887Z,41.25
2022-12-24T21:34:39.470Z,36.25
2022-12-24T21:37:09.338Z,16.75
2022-12-24T21:39:59.184Z,31.75
2022-12-24T21:42:28.006Z,26.00
2022-12-24T21:44:55.499Z,28.33
2022-12-24T21:47:23.512Z,27.25
2022-12-24T21:50:09.464Z,25.75
2022-12-24T21:52:37.871Z,28.67
2022-12-24T21:55:05.964Z,27.75
2022-12-24T21:57:53.233Z,32.25
2022-12-24T22:00:38.136Z,35.25
2022-12-24T22:03:22.456Z,25.75
2022-12-24T22:06:08.642Z,36.50
2022-12-24T22:09:01.055Z,27.25
2022-12-24T22:11:57.158Z,23.00
2022-12-24T22:14:42.866Z,22.00
2022-12-24T22:17:39.981Z,32.50
2022-12-24T22:20:13.968Z,34.25
2022-12-24T22:22:53.545Z,28.00
2022-12-24T22:25:21.885Z,27.50
2022-12-24T22:27:52.898Z,26.00
2022-12-24T22:30:24.235Z,21.67
2022-12-24T22:32:56.459Z,42.00
2022-12-24T22:35:30.131Z,35.50
2022-12-24T22:38:00.364Z,33.25
2022-12-24T22:40:49.365Z,31.50
2022-12-24T22:43:18.461Z,41.75
2022-12-24T22:45:54.044Z,31.25
2022-12-24T22:48:24.055Z,22.67
2022-12-24T22:50:53.499Z,35.75
2022-12-24T22:53:27.357Z,27.00
2022-12-24T22:55:58.319Z,29.75
2022-12-24T22:58:26.053Z,25.00
2022-12-24T23:05:45.156Z,33.33
2022-12-24T23:08:18.245Z,40.50
2022-12-24T23:11:03.990Z,43.00
2022-12-24T23:15:00.965Z,31.25
2022-12-24T23:16:52.258Z,43.50
2022-12-24T23:19:38.234Z,31.50
2022-12-24T23:22:08.697Z,37.75
2022-12-24T23:24:50.739Z,53.25
2022-12-24T23:27:37.376Z,57.00
2022-12-24T23:30:11.939Z,58.25
2022-12-24T23:32:52.253Z,59.50
2022-12-24T23:35:26.926Z,52.50
2022-12-24T23:38:08.657Z,70.25
2022-12-24T23:40:38.079Z,64.75
2022-12-24T23:43:06.365Z,44.50
2022-12-24T23:45:34.121Z,38.00
2022-12-24T23:48:01.388Z,37.25
2022-12-24T23:50:29.467Z,34.75
2022-12-24T23:52:56.574Z,35.00
2022-12-24T23:55:24.214Z,47.00
2022-12-24T23:57:51.362Z,55.50
